Spring Gap, Maryland
Current Conditions -  °F | °C
As of 5:41 AM on Monday 22 Dec 2014 (Local Time) from KCBE Reporting Station
Clear Clear  
Wind Chill: 27°   Ceiling: Unl
Heat Index: 27°   Visibility: 4mi
Dew Point: 23°   Wind: 0mph
Humidity: 86%   Direction: NA
Pressure: 30.27"   Gusts: NA
Location:  39.56°N, 78.72°W
Report Text: KCBE 221041Z AUTO 00000KT 4SM CLR M03/M05 A3027 RMK AO1
Loading
Personal Weather Stations






























Interactive Weather Map New forecast layout! Learn more

10-Day Weather Forecast

Advertisements
Track Severe Weather on mobile